Time;durP1;ratioP1;P1;durP2;ratioP2;P2;SDS_P1;SDS_P2;PMS_P1;PMS_P2;Temp;Humidity;BMP_temperature;BMP_pressure;BME280_temperature;BME280_humidity;BME280_pressure;Samples;Min_cycle;Max_cycle;Signal;HPM_P1;HPM_P2
2021/01/13 00:00:44;;;;;;;;;;;0.60;99.90;;;-0.42;92.18;95471.75;10539461;28;2205;-80
2021/01/13 00:05:46;;;;;;;;;;;0.60;99.90;;;-0.48;92.53;95477.88;10519498;28;2237;-81
2021/01/13 00:10:48;;;;;;;;;;;0.70;99.90;;;-0.50;92.15;95477.31;10546411;28;2338;-81
2021/01/13 00:15:49;;;;;;;;;;;0.60;99.90;;;-0.56;92.07;95481.59;10534388;28;2248;-80
2021/01/13 00:20:51;;;;;;;;;;;0.60;99.90;;;-0.65;92.48;95488.94;10536232;28;2328;-81
2021/01/13 00:25:53;;;;;;;;;;;0.50;99.90;;;-0.74;92.69;95474.38;10533331;28;2180;-80
2021/01/13 00:30:56;;;;;;;;;;;1.10;99.90;;;-0.80;92.46;95469.13;10519222;28;2339;-82
2021/01/13 00:35:58;;;;;;;;;;;0.40;99.90;;;-0.89;92.59;95477.28;10539868;28;2279;-78
2021/01/13 00:41:00;;;;;;;;;;;0.30;99.90;;;-0.96;92.72;95496.78;10540659;28;2220;-80
2021/01/13 00:46:04;;;;;;;;;;;0.30;99.90;;;-0.99;93.09;95498.00;10539632;28;2267;-80
2021/01/13 00:51:06;;;;;;;;;;;0.20;99.90;;;-1.06;92.80;95507.78;10541687;28;2215;-78
2021/01/13 00:56:08;;;;;;;;;;;1.70;99.90;;;-1.14;93.17;95521.19;10540853;28;2339;-80
2021/01/13 01:01:10;;;;;;;;;;;0.00;99.90;;;-1.17;93.76;95525.03;10533764;28;2282;-80
2021/01/13 01:06:13;;;;;;;;;;;0.00;99.90;;;-1.14;93.83;95527.28;10537318;28;2332;-83
2021/01/13 01:11:15;;;;;;;;;;;0.00;99.90;;;-1.22;93.64;95535.38;10536475;28;2375;-79
2021/01/13 01:16:17;;;;;;;;;;;0.00;99.90;;;-1.25;93.26;95541.09;10538596;28;2248;-81
2021/01/13 01:21:20;;;;;;;;;;;-0.10;99.90;;;-1.33;94.05;95536.03;10543356;28;2332;-80
2021/01/13 01:26:22;;;;;;;;;;;-0.10;99.90;;;-1.41;94.22;95544.13;10555605;28;2068;-81
2021/01/13 01:31:24;;;;;;;;;;;-0.20;99.90;;;-1.40;94.06;95536.03;10569575;28;2363;-82
2021/01/13 01:36:26;;;;;;;;;;;-0.20;99.90;;;-1.45;93.83;95540.31;10592172;27;2337;-81
2021/01/13 01:41:28;;;;;;;;;;;-0.30;99.90;;;-1.45;94.26;95542.94;10578647;27;1763;-80
2021/01/13 01:46:30;;;;;;;;;;;-0.30;99.90;;;-1.52;93.61;95545.59;10558852;27;1665;-82
2021/01/13 01:51:32;;;;;;;;;;;1.30;99.90;;;-1.56;94.13;95547.00;10526518;28;2266;-81
2021/01/13 01:56:33;;;;;;;;;;;-0.40;99.90;;;-1.54;94.10;95544.97;10574509;27;2257;-79
2021/01/13 02:01:35;;;;;;;;;;;1.40;99.90;;;-1.56;93.78;95556.72;10534315;28;2418;-81
2021/01/13 02:06:37;;;;;;;;;;;0.50;99.90;;;-1.58;92.92;95561.41;10542496;28;2236;-81
2021/01/13 02:11:39;;;;;;;;;;;-0.40;99.90;;;-1.60;93.04;95573.97;10551431;28;2496;-80
2021/01/13 02:16:41;;;;;;;;;;;0.60;99.90;;;-1.67;92.75;95577.41;10555551;28;2284;-82
2021/01/13 02:21:42;;;;;;;;;;;-0.50;99.90;;;-1.71;93.22;95580.66;10546387;28;2312;-82
2021/01/13 02:26:44;;;;;;;;;;;-0.50;99.90;;;-1.73;92.70;95564.22;10563362;28;2327;-82
2021/01/13 02:31:46;;;;;;;;;;;0.60;99.90;;;-1.70;92.99;95569.91;10572597;28;2247;-80
2021/01/13 02:36:48;;;;;;;;;;;-0.50;99.90;;;-1.72;92.49;95576.38;10582995;28;2177;-79
2021/01/13 02:41:50;;;;;;;;;;;0.70;99.90;;;-1.76;92.22;95585.72;10594563;27;2193;-79
2021/01/13 02:46:52;;;;;;;;;;;-0.50;99.90;;;-1.85;92.64;95586.91;10551865;28;2268;-79
2021/01/13 02:51:53;;;;;;;;;;;-0.30;99.90;;;-1.90;92.34;95587.53;10591627;28;2419;-80
2021/01/13 02:56:56;;;;;;;;;;;0.70;99.90;;;-1.94;92.93;95589.75;10564700;28;2434;-81
2021/01/13 03:01:57;;;;;;;;;;;-0.70;99.90;;;-2.01;92.57;95582.84;10564477;28;2502;-79
2021/01/13 03:06:59;;;;;;;;;;;-0.80;99.90;;;-1.98;92.92;95582.44;10559941;28;2514;-82
2021/01/13 03:12:03;;;;;;;;;;;0.10;99.90;;;-2.13;92.55;95590.50;10576392;28;2486;-80
2021/01/13 03:17:05;;;;;;;;;;;-0.90;99.90;;;-2.06;93.18;95595.78;10576772;28;2455;-81
2021/01/13 03:22:07;;;;;;;;;;;-0.90;99.90;;;-2.06;92.99;95585.25;10573778;28;2384;-82
2021/01/13 03:27:09;;;;;;;;;;;-0.90;99.90;;;-2.03;92.82;95585.69;10544973;28;2360;-81
2021/01/13 03:32:10;;;;;;;;;;;-0.30;99.90;;;-2.06;93.26;95580.78;10543362;28;2893;-82
2021/01/13 03:37:12;;;;;;;;;;;-0.90;99.90;;;-2.07;92.96;95588.91;10549594;28;2431;-82
2021/01/13 03:42:14;;;;;;;;;;;-0.30;99.90;;;-2.11;93.33;95585.03;10540818;28;2407;-83
2021/01/13 03:47:16;;;;;;;;;;;-0.10;99.90;;;-2.12;93.09;95586.84;10550380;28;2469;-81
2021/01/13 03:52:19;;;;;;;;;;;-0.90;99.90;;;-2.18;93.31;95583.19;10539498;28;2515;-83
2021/01/13 03:57:21;;;;;;;;;;;-1.00;99.90;;;-2.15;93.05;95602.25;10547606;28;2610;-83
2021/01/13 04:02:23;;;;;;;;;;;0.90;99.90;;;-2.08;93.55;95596.00;10528183;28;2469;-81
2021/01/13 04:07:25;;;;;;;;;;;-1.00;99.90;;;-2.06;92.94;95598.44;10561660;28;2423;-84
2021/01/13 04:12:27;;;;;;;;;;;-0.90;99.90;;;-2.06;93.12;95606.31;10541013;28;2416;-84
2021/01/13 04:17:28;;;;;;;;;;;-1.00;99.90;;;-2.03;93.05;95600.69;10556881;28;2423;-81
2021/01/13 04:22:30;;;;;;;;;;;0.60;99.90;;;-1.99;92.59;95609.78;10551192;28;2378;-81
2021/01/13 04:27:32;;;;;;;;;;;-0.90;99.90;;;-1.95;93.12;95606.56;10545659;28;2551;-82
2021/01/13 04:32:34;;;;;;;;;;;-0.80;99.90;;;-1.90;92.56;95608.59;10555154;28;2524;-83
2021/01/13 04:37:36;;;;;;;;;;;1.70;99.90;;;-1.90;93.19;95616.50;10531390;28;2470;-82
2021/01/13 04:42:37;;;;;;;;;;;-0.80;99.90;;;-1.89;92.57;95607.59;10519265;28;2403;-82
2021/01/13 04:47:39;;;;;;;;;;;-0.80;99.90;;;-1.81;92.17;95617.94;10529419;28;2387;-80
2021/01/13 04:52:41;;;;;;;;;;;-0.70;99.90;;;-1.80;92.61;95627.44;10531843;28;2442;-82
2021/01/13 04:57:42;;;;;;;;;;;0.60;99.90;;;-1.77;92.21;95637.59;10528045;28;2336;-82
2021/01/13 05:02:44;;;;;;;;;;;-0.60;99.90;;;-1.84;92.08;95625.44;10524559;28;2518;-82
2021/01/13 05:07:46;;;;;;;;;;;-0.60;99.90;;;-1.86;92.30;95649.34;10540442;28;2414;-82
2021/01/13 05:12:48;;;;;;;;;;;-0.70;99.90;;;-1.91;92.22;95649.09;10555011;28;2517;-81
2021/01/13 05:17:50;;;;;;;;;;;-0.80;99.90;;;-1.84;92.78;95657.88;10538625;28;2510;-82
2021/01/13 05:22:51;;;;;;;;;;;-0.70;99.90;;;-1.80;92.12;95664.34;10552174;28;2550;-81
2021/01/13 05:27:53;;;;;;;;;;;0.10;99.90;;;-1.72;91.78;95661.53;10550205;28;2406;-82
2021/01/13 05:32:55;;;;;;;;;;;-0.60;99.90;;;-1.67;91.46;95668.84;10558311;28;2466;-80
2021/01/13 05:37:57;;;;;;;;;;;-0.60;99.90;;;-1.65;91.43;95683.44;10557463;28;2398;-80
2021/01/13 05:42:58;;;;;;;;;;;0.40;99.90;;;-1.58;91.95;95687.94;10535342;28;2419;-81
2021/01/13 05:48:00;;;;;;;;;;;0.10;99.90;;;-1.60;92.00;95685.47;10540234;28;2407;-82
2021/01/13 05:53:05;;;;;;;;;;;0.90;99.90;;;-1.55;91.25;95698.88;10521431;28;2630;-79
2021/01/13 05:58:06;;;;;;;;;;;-0.50;99.90;;;-1.50;91.04;95703.56;10571384;28;2857;-81
2021/01/13 06:03:08;;;;;;;;;;;-0.40;99.90;;;-1.54;91.62;95704.94;10556896;28;2436;-81
2021/01/13 06:08:10;;;;;;;;;;;-0.40;99.90;;;-1.65;91.12;95711.63;10551975;28;2420;-81
2021/01/13 06:13:12;;;;;;;;;;;0.30;99.90;;;-1.73;90.94;95723.16;10554667;28;2499;-81
2021/01/13 06:18:13;;;;;;;;;;;-0.50;99.90;;;-1.75;91.28;95717.28;10569166;28;2484;-81
2021/01/13 06:23:15;;;;;;;;;;;-0.60;99.90;;;-1.87;90.70;95720.66;10580138;28;2562;-82
2021/01/13 06:28:18;;;;;;;;;;;0.50;99.90;;;-1.95;91.13;95719.03;10577732;28;2680;-81
2021/01/13 06:33:20;;;;;;;;;;;0.20;99.90;;;-1.99;91.41;95733.59;10584663;28;2067;-80
2021/01/13 06:38:22;;;;;;;;;;;-0.80;99.90;;;-1.99;91.68;95723.06;10569128;28;2458;-80
2021/01/13 06:43:23;;;;;;;;;;;-0.80;99.90;;;-2.10;91.74;95732.34;10567659;28;2038;-82
2021/01/13 06:48:25;;;;;;;;;;;1.00;99.90;;;-2.14;91.61;95730.28;10549465;28;2513;-82
2021/01/13 06:53:27;;;;;;;;;;;-0.40;99.90;;;-2.21;91.89;95744.25;10550530;28;2517;-80
2021/01/13 06:58:29;;;;;;;;;;;-1.00;99.90;;;-2.25;92.61;95745.63;10556038;28;2355;-82
2021/01/13 07:03:31;;;;;;;;;;;0.40;99.90;;;-2.31;92.67;95749.03;10546345;28;2772;-79
2021/01/13 07:08:35;;;;;;;;;;;-1.10;99.90;;;-2.27;91.89;95750.28;10580619;28;2490;-80
2021/01/13 07:13:38;;;;;;;;;;;-0.90;99.90;;;-2.19;92.00;95750.09;10554242;28;2272;-81
2021/01/13 07:18:41;;;;;;;;;;;0.20;99.90;;;-2.05;91.76;95740.44;10570616;28;2353;-81
2021/01/13 07:23:42;;;;;;;;;;;-1.00;99.90;;;-2.03;92.23;95749.00;10577167;28;2335;-80
2021/01/13 07:28:44;;;;;;;;;;;-0.70;99.90;;;-1.87;91.93;95747.81;10561249;28;2250;-81
2021/01/13 07:33:46;;;;;;;;;;;-0.80;99.90;;;-1.79;91.26;95752.09;10568533;28;2398;-82
2021/01/13 07:38:49;;;;;;;;;;;1.20;99.90;;;-1.84;90.58;95742.19;10556744;28;2323;-81
2021/01/13 07:43:51;;;;;;;;;;;0.20;99.90;;;-1.70;90.60;95751.75;10555627;28;2409;-82
2021/01/13 07:48:53;;;;;;;;;;;0.70;99.90;;;-1.48;90.78;95741.88;10552769;28;2255;-81
2021/01/13 07:53:55;;;;;;;;;;;-0.40;99.90;;;-1.31;90.29;95742.31;10535535;28;2378;-82
2021/01/13 07:58:57;;;;;;;;;;;-0.10;99.90;;;-1.16;89.42;95745.59;10538869;28;2450;-79
2021/01/13 08:03:59;;;;;;;;;;;1.20;99.90;;;-1.17;89.07;95749.25;10548415;28;2244;-82
2021/01/13 08:09:07;;;;;;;;;;;-0.20;99.90;;;-1.14;89.34;95746.22;10528578;28;2455;-82
2021/01/13 08:14:10;;;;;;;;;;;-0.10;99.90;;;-0.99;89.03;95761.03;10547113;28;2275;-80
2021/01/13 08:19:14;;;;;;;;;;;1.20;99.90;;;-1.00;88.23;95754.94;10559895;28;2338;-80
2021/01/13 08:24:19;;;;;;;;;;;0.10;99.90;;;-1.07;88.15;95762.06;10534530;28;2685;-80
2021/01/13 08:29:21;;;;;;;;;;;0.00;99.90;;;-1.04;87.42;95766.09;10566238;28;2353;-80
2021/01/13 08:34:24;;;;;;;;;;;1.40;99.90;;;-1.14;88.39;95777.88;10559455;28;2632;-78
2021/01/13 08:39:26;;;;;;;;;;;0.00;99.90;;;-0.88;88.21;95778.91;10558855;28;1866;-78
2021/01/13 08:44:28;;;;;;;;;;;0.10;99.90;;;-0.72;87.03;95789.06;10569280;28;2182;-79
2021/01/13 08:49:30;;;;;;;;;;;0.30;99.90;;;-0.46;87.31;95795.34;10543759;28;2316;-79
2021/01/13 08:54:34;;;;;;;;;;;0.90;99.90;;;-0.38;86.39;95797.78;10571138;28;2175;-79
2021/01/13 08:59:39;;;;;;;;;;;0.60;99.90;;;-0.31;85.52;95806.53;10533914;28;2302;-79
2021/01/13 09:04:41;;;;;;;;;;;0.70;99.90;;;-0.28;85.93;95808.75;10548304;28;2014;-79
2021/01/13 09:09:49;;;;;;;;;;;0.70;99.90;;;-0.16;85.53;95806.31;10565501;28;2774;-78
2021/01/13 09:14:51;;;;;;;;;;;0.80;99.90;;;-0.20;85.39;95816.47;10530756;28;2108;-79
2021/01/13 09:19:54;;;;;;;;;;;2.40;99.90;;;0.11;85.33;95815.00;10563590;28;2247;-79
2021/01/13 09:24:59;;;;;;;;;;;1.00;99.90;;;0.19;82.95;95814.75;10564259;28;2436;-77
2021/01/13 09:30:04;;;;;;;;;;;1.20;99.90;;;0.34;83.59;95820.63;10539871;28;2233;-77
2021/01/13 09:35:06;;;;;;;;;;;1.40;99.90;;;0.24;83.34;95826.34;10533912;28;2306;-76
2021/01/13 09:40:08;;;;;;;;;;;1.40;99.90;;;0.02;82.92;95842.69;10555157;28;2318;-76
2021/01/13 09:45:10;;;;;;;;;;;1.30;99.90;;;-0.03;83.05;95835.34;10529133;28;2257;-79
2021/01/13 09:50:13;;;;;;;;;;;1.00;99.90;;;0.00;82.96;95837.59;10564474;28;2288;-78
2021/01/13 09:55:15;;;;;;;;;;;2.30;99.90;;;0.15;82.28;95842.66;10561969;28;1894;-76
2021/01/13 10:00:17;;;;;;;;;;;2.20;99.90;;;0.18;81.83;95850.16;10576389;28;2303;-79
2021/01/13 10:05:32;;;;;;;;;;;1.20;99.90;;;0.22;81.60;95852.19;10564438;28;2370;-78
2021/01/13 10:10:36;;;;;;;;;;;1.20;99.90;;;0.18;81.92;95843.03;10558629;28;2243;-79
2021/01/13 10:15:49;;;;;;;;;;;1.20;99.90;;;0.60;80.45;95842.72;10558949;28;2311;-78
2021/01/13 10:20:59;;;;;;;;;;;2.50;99.90;;;0.58;80.27;95842.94;10552731;28;1932;-77
2021/01/13 10:26:04;;;;;;;;;;;1.50;99.90;;;0.77;79.47;95838.59;10554498;28;2397;-80
2021/01/13 10:31:06;;;;;;;;;;;2.90;99.90;;;0.76;80.62;95829.84;10568102;28;1975;-80
2021/01/13 10:36:08;;;;;;;;;;;2.50;99.90;;;0.78;80.78;95833.06;10583599;28;2264;-80
2021/01/13 10:41:10;;;;;;;;;;;1.70;99.90;;;0.76;80.23;95826.34;10574685;28;2351;-80
2021/01/13 10:46:12;;;;;;;;;;;1.70;99.90;;;0.81;79.81;95832.66;10572877;28;2137;-80
2021/01/13 10:51:14;;;;;;;;;;;2.80;99.90;;;0.55;80.14;95816.88;10553902;28;2370;-80
2021/01/13 10:56:17;;;;;;;;;;;1.70;99.90;;;0.92;78.70;95817.94;10587709;28;2372;-80
2021/01/13 11:01:27;;;;;;;;;;;2.60;99.90;;;1.05;78.30;95809.13;10553671;28;2270;-79
2021/01/13 11:06:31;;;;;;;;;;;2.00;99.90;;;1.17;77.96;95804.75;10569041;28;1771;-84
2021/01/13 11:11:35;;;;;;;;;;;2.90;99.90;;;1.40;78.15;95804.22;10550113;28;2361;-82
2021/01/13 11:16:47;;;;;;;;;;;2.30;99.90;;;1.61;76.04;95793.22;10562176;28;2559;-83
2021/01/13 11:22:07;;;;;;;;;;;2.50;99.90;;;1.68;75.67;95781.75;10537428;28;2336;-81
2021/01/13 11:27:09;;;;;;;;;;;3.90;99.90;;;1.37;73.33;95780.78;10560886;28;2270;-82
2021/01/13 11:32:12;;;;;;;;;;;2.50;99.90;;;1.59;74.59;95766.16;10559968;28;2419;-83
2021/01/13 11:37:15;;;;;;;;;;;2.40;99.90;;;1.66;71.74;95767.94;10572116;28;2245;-83
2021/01/13 11:42:17;;;;;;;;;;;4.40;99.90;;;1.54;71.46;95758.03;10568429;28;2347;-80
2021/01/13 11:47:19;;;;;;;;;;;2.60;99.90;;;1.29;69.99;95754.56;10546470;28;2243;-82
2021/01/13 11:52:21;;;;;;;;;;;2.30;99.90;;;1.30;71.94;95751.72;10548844;28;2316;-83
2021/01/13 11:57:23;;;;;;;;;;;2.50;99.90;;;1.28;73.72;95752.97;10545876;28;2167;-81
2021/01/13 12:02:25;;;;;;;;;;;2.20;99.90;;;1.08;72.02;95751.28;10556543;28;2352;-84
2021/01/13 12:07:28;;;;;;;;;;;3.20;99.90;;;0.85;73.48;95740.44;10554125;28;2196;-80
2021/01/13 12:12:39;;;;;;;;;;;2.90;99.90;;;0.72;71.62;95748.44;10556204;28;2259;-83
2021/01/13 12:18:12;;;;;;;;;;;1.70;99.90;;;0.65;72.54;95726.50;10555700;28;2235;-81
2021/01/13 12:23:27;;;;;;;;;;;3.10;99.90;;;0.52;73.06;95716.81;10577188;28;2342;-81
2021/01/13 12:34:06;;;;;;;;;;;1.50;99.90;;;0.34;73.31;95712.22;10557354;28;2085;-79
2021/01/13 12:39:09;;;;;;;;;;;1.30;99.90;;;0.35;72.45;95700.63;10558653;28;2231;-81
2021/01/13 12:44:11;;;;;;;;;;;1.60;99.90;;;0.35;71.35;95684.75;10552413;28;2139;-82
2021/01/13 12:49:14;;;;;;;;;;;1.40;99.90;;;0.38;70.98;95676.41;10519945;28;2229;-83
2021/01/13 12:54:16;;;;;;;;;;;1.40;99.90;;;0.49;71.19;95681.00;10521014;28;2208;-82
2021/01/13 12:59:18;;;;;;;;;;;2.30;99.90;;;0.91;70.72;95673.41;10527442;28;2278;-82
2021/01/13 13:04:20;;;;;;;;;;;1.70;99.90;;;1.12;71.07;95668.75;10523337;28;2382;-82
2021/01/13 13:09:22;;;;;;;;;;;2.00;99.90;;;1.08;72.32;95658.63;10542636;28;2207;-80
2021/01/13 13:14:24;;;;;;;;;;;2.50;99.90;;;1.25;72.48;95653.56;10542964;28;1776;-82
2021/01/13 13:19:25;;;;;;;;;;;3.00;99.90;;;1.33;72.50;95655.13;10542390;28;2216;-80
2021/01/13 13:24:27;;;;;;;;;;;4.00;99.90;;;1.39;74.13;95648.94;10513813;28;2280;-83
2021/01/13 13:29:29;;;;;;;;;;;2.60;99.90;;;1.42;71.64;95648.53;10545861;28;2009;-81
2021/01/13 13:34:31;;;;;;;;;;;2.40;99.90;;;1.59;71.13;95643.44;10513381;28;2350;-81
2021/01/13 13:39:33;;;;;;;;;;;2.50;99.90;;;1.44;72.51;95641.16;10525217;28;2001;-80
2021/01/13 13:44:34;;;;;;;;;;;3.60;99.90;;;1.44;72.78;95641.16;10524643;28;2367;-84
2021/01/13 13:49:36;;;;;;;;;;;2.50;99.90;;;1.47;71.49;95629.31;10524656;28;2355;-81
2021/01/13 13:54:38;;;;;;;;;;;2.50;99.90;;;1.45;72.34;95623.41;10552328;28;2253;-80
2021/01/13 13:59:40;;;;;;;;;;;2.50;99.90;;;1.29;72.34;95638.06;10566434;27;2312;-82
2021/01/13 14:04:42;;;;;;;;;;;3.10;99.90;;;1.25;71.95;95632.38;10544489;28;2303;-82
2021/01/13 14:09:45;;;;;;;;;;;3.30;99.90;;;1.28;72.19;95633.78;10545250;28;2129;-81
2021/01/13 14:14:47;;;;;;;;;;;2.30;99.90;;;1.35;72.65;95618.66;10570597;28;2279;-83
2021/01/13 14:19:49;;;;;;;;;;;2.40;99.90;;;1.41;71.44;95617.78;10555329;28;2253;-81
2021/01/13 14:24:50;;;;;;;;;;;2.70;99.90;;;1.31;69.47;95614.81;10573735;28;2224;-81
2021/01/13 14:29:52;;;;;;;;;;;2.90;99.90;;;1.15;70.46;95615.38;10576531;28;2426;-79
2021/01/13 14:34:54;;;;;;;;;;;3.00;99.90;;;0.86;69.72;95614.22;10574605;28;1991;-84
2021/01/13 14:40:00;;;;;;;;;;;2.40;99.90;;;0.73;70.55;95615.13;10564934;28;1886;-81
2021/01/13 14:45:06;;;;;;;;;;;3.50;99.90;;;0.60;70.35;95623.16;10554191;28;2217;-80
2021/01/13 14:50:10;;;;;;;;;;;3.90;99.90;;;0.57;71.17;95613.00;10554494;28;2720;-79
2021/01/13 14:55:21;;;;;;;;;;;3.50;99.90;;;0.53;70.99;95602.06;10563443;28;2296;-82
2021/01/13 15:05:40;;;;;;;;;;;1.60;99.90;;;0.29;71.45;95597.53;10585547;28;2104;-82
2021/01/13 15:10:42;;;;;;;;;;;3.10;99.90;;;0.12;72.29;95610.44;10562341;28;1943;-79
2021/01/13 15:15:44;;;;;;;;;;;3.70;99.90;;;-0.07;73.78;95602.41;10555225;28;2254;-80
2021/01/13 15:20:46;;;;;;;;;;;1.20;99.90;;;-0.20;74.35;95599.84;10550321;28;2275;-79
2021/01/13 15:25:48;;;;;;;;;;;1.00;99.90;;;-0.32;74.31;95591.78;10564489;28;2510;-79
2021/01/13 15:30:50;;;;;;;;;;;2.20;99.90;;;-0.40;75.91;95588.53;10556344;28;2243;-80
2021/01/13 15:35:52;;;;;;;;;;;2.20;99.90;;;-0.46;75.59;95589.38;10548292;28;2318;-81
2021/01/13 15:40:54;;;;;;;;;;;2.30;99.90;;;-0.51;76.64;95573.34;10583368;28;2296;-81
2021/01/13 15:45:56;;;;;;;;;;;2.20;99.90;;;-0.67;77.69;95574.63;10558862;28;2221;-78
2021/01/13 15:50:59;;;;;;;;;;;0.60;99.90;;;-0.71;77.20;95563.66;10557015;28;2363;-83
2021/01/13 15:56:03;;;;;;;;;;;0.60;99.90;;;-0.72;77.66;95556.78;10542834;28;2351;-80
2021/01/13 16:01:07;;;;;;;;;;;1.50;99.90;;;-0.80;77.93;95553.56;10552701;28;2292;-82
2021/01/13 16:06:11;;;;;;;;;;;1.40;99.90;;;-0.79;77.97;95556.00;10565169;28;2017;-81
2021/01/13 16:11:14;;;;;;;;;;;0.40;99.90;;;-0.87;78.77;95537.75;10572467;28;1949;-82
2021/01/13 16:16:16;;;;;;;;;;;0.40;99.90;;;-0.94;78.90;95537.78;10571198;28;1982;-79
2021/01/13 16:21:20;;;;;;;;;;;0.80;99.90;;;-0.88;80.08;95520.31;10590363;28;2403;-80
2021/01/13 16:26:24;;;;;;;;;;;0.30;99.90;;;-0.88;79.38;95518.47;10575526;28;2271;-81
2021/01/13 16:31:27;;;;;;;;;;;1.50;99.90;;;-0.84;79.74;95500.38;10559609;28;2419;-81
2021/01/13 16:36:31;;;;;;;;;;;0.40;99.90;;;-0.96;80.29;95502.03;10556676;28;2316;-82
2021/01/13 16:41:38;;;;;;;;;;;0.30;99.90;;;-1.03;81.41;95493.34;10547131;28;1929;-81
2021/01/13 16:46:40;;;;;;;;;;;0.10;99.90;;;-1.01;82.04;95484.22;10540158;28;2312;-81
2021/01/13 16:51:42;;;;;;;;;;;0.20;99.90;;;-0.95;82.39;95477.31;10545836;28;2243;-82
2021/01/13 16:56:44;;;;;;;;;;;1.80;99.90;;;-0.98;81.72;95467.16;10551763;28;2354;-84
2021/01/13 17:01:53;;;;;;;;;;;0.20;99.90;;;-0.97;82.96;95463.50;10525744;28;2292;-84
2021/01/13 17:06:55;;;;;;;;;;;1.30;99.90;;;-0.89;82.99;95442.13;10521743;28;2446;-81
2021/01/13 17:11:56;;;;;;;;;;;0.20;99.90;;;-0.82;82.93;95440.31;10563328;28;2170;-84
2021/01/13 17:17:02;;;;;;;;;;;0.30;99.90;;;-0.77;82.55;95429.91;10583691;28;2347;-84
2021/01/13 17:22:04;;;;;;;;;;;0.40;99.90;;;-0.71;82.69;95426.41;10561342;28;2302;-82
2021/01/13 17:27:06;;;;;;;;;;;1.50;99.90;;;-0.69;83.21;95419.13;10542665;28;1662;-83
2021/01/13 17:32:08;;;;;;;;;;;0.40;99.90;;;-0.65;83.43;95403.66;10536788;28;2351;-81
2021/01/13 17:37:10;;;;;;;;;;;0.40;99.90;;;-0.62;83.62;95409.31;10559707;28;2295;-83
2021/01/13 17:42:13;;;;;;;;;;;0.50;99.90;;;-0.58;83.97;95399.94;10562590;28;2326;-81
2021/01/13 17:47:15;;;;;;;;;;;0.60;99.90;;;-0.46;83.32;95393.97;10540377;28;2402;-85
2021/01/13 17:52:17;;;;;;;;;;;0.60;99.90;;;-0.39;84.10;95384.19;10548555;28;2229;-82
2021/01/13 17:57:19;;;;;;;;;;;0.80;99.90;;;-0.32;84.07;95377.84;10534337;28;2458;-83
2021/01/13 18:02:24;;;;;;;;;;;1.90;99.90;;;-0.20;84.45;95375.28;10560882;28;2350;-81
2021/01/13 18:07:27;;;;;;;;;;;2.80;99.90;;;-0.14;84.58;95374.44;10553164;28;2308;-82
2021/01/13 18:12:38;;;;;;;;;;;2.10;99.90;;;0.06;84.56;95360.22;10561214;28;2146;-81
2021/01/13 18:17:41;;;;;;;;;;;2.30;99.90;;;0.22;83.72;95362.31;10554214;28;2165;-81
2021/01/13 18:22:47;;;;;;;;;;;1.50;99.90;;;0.33;83.52;95348.38;10527944;28;2221;-79
2021/01/13 18:28:04;;;;;;;;;;;2.70;99.90;;;0.39;83.61;95336.94;10557849;28;2307;-83
2021/01/13 18:33:40;;;;;;;;;;;2.80;99.90;;;0.49;83.25;95339.84;10527431;28;2398;-79
2021/01/13 18:38:42;;;;;;;;;;;1.50;99.90;;;0.60;82.98;95329.56;10527332;28;2360;-81
2021/01/13 18:43:43;;;;;;;;;;;3.60;99.90;;;0.69;82.76;95336.16;10562356;28;2281;-81
2021/01/13 18:48:47;;;;;;;;;;;1.70;99.90;;;0.80;82.11;95319.53;10550500;28;2275;-79
2021/01/13 18:53:49;;;;;;;;;;;1.90;99.90;;;1.01;81.37;95312.94;10567046;28;2123;-80
2021/01/13 18:58:51;;;;;;;;;;;3.30;99.90;;;1.03;81.06;95301.13;10541380;28;2704;-79
2021/01/13 19:03:53;;;;;;;;;;;2.30;99.90;;;0.93;81.57;95290.25;10547087;28;2299;-80
2021/01/13 19:08:54;;;;;;;;;;;2.10;99.90;;;1.11;80.77;95286.75;10548089;28;2443;-78
2021/01/13 19:13:56;;;;;;;;;;;2.80;99.90;;;1.08;80.81;95282.72;10556285;28;2327;-78
2021/01/13 19:18:58;;;;;;;;;;;2.20;99.90;;;1.11;80.14;95280.66;10540341;28;2015;-79
2021/01/13 19:24:00;;;;;;;;;;;3.90;99.90;;;1.24;79.60;95269.84;10527897;28;2394;-77
2021/01/13 19:29:04;;;;;;;;;;;2.30;99.90;;;1.27;79.03;95282.63;10558810;28;2204;-77
2021/01/13 19:34:06;;;;;;;;;;;2.40;99.90;;;1.30;78.51;95267.09;10548919;28;2358;-80
2021/01/13 19:39:09;;;;;;;;;;;2.60;99.90;;;1.30;78.60;95253.88;10551290;28;2673;-79
2021/01/13 19:44:13;;;;;;;;;;;2.40;99.90;;;1.42;77.87;95238.00;10560254;28;2288;-80
2021/01/13 19:49:15;;;;;;;;;;;4.40;99.90;;;1.59;76.93;95230.97;10538466;28;2320;-81
2021/01/13 19:54:18;;;;;;;;;;;3.50;99.90;;;1.66;76.79;95224.75;10585352;28;2460;-80
2021/01/13 19:59:20;;;;;;;;;;;2.70;99.90;;;1.81;76.80;95244.44;10580499;28;2367;-81
2021/01/13 20:04:22;;;;;;;;;;;4.20;99.90;;;1.90;77.98;95226.34;10580541;28;2704;-82
2021/01/13 20:09:27;;;;;;;;;;;5.10;99.90;;;1.90;79.87;95223.69;10565820;28;2411;-79
2021/01/13 20:14:31;;;;;;;;;;;3.00;99.90;;;1.86;81.59;95209.31;10576894;28;2061;-81
2021/01/13 20:19:36;;;;;;;;;;;3.40;99.90;;;1.75;83.88;95208.25;10535492;28;2434;-79
2021/01/13 20:24:38;;;;;;;;;;;2.80;99.90;;;1.66;85.06;95214.16;10552471;28;2291;-82
2021/01/13 20:29:43;;;;;;;;;;;2.80;99.90;;;1.57;86.53;95211.84;10555097;28;2453;-80
2021/01/13 20:34:45;;;;;;;;;;;4.70;99.90;;;1.48;88.05;95199.19;10548677;28;2246;-80
2021/01/13 20:39:47;;;;;;;;;;;2.60;99.90;;;1.28;90.18;95202.19;10550795;28;2272;-80
2021/01/13 20:45:06;;;;;;;;;;;2.50;99.90;;;1.18;90.93;95199.28;10534653;28;2276;-80
2021/01/13 20:50:09;;;;;;;;;;;2.30;99.90;;;1.12;91.95;95189.59;10528736;28;1856;-80
2021/01/13 20:55:11;;;;;;;;;;;2.20;99.90;;;0.97;92.53;95182.91;10540066;28;1223;-79
2021/01/13 21:00:14;;;;;;;;;;;2.10;99.90;;;0.93;92.96;95179.09;10546480;28;1697;-82
2021/01/13 21:05:16;;;;;;;;;;;3.70;99.90;;;0.91;93.26;95181.19;10551509;28;1649;-81
2021/01/13 21:10:18;;;;;;;;;;;2.00;99.90;;;0.87;93.23;95153.56;10555485;28;1220;-80
2021/01/13 21:15:20;;;;;;;;;;;2.00;99.90;;;0.87;93.14;95152.75;10561439;28;1988;-80
2021/01/13 21:20:22;;;;;;;;;;;1.90;99.90;;;0.85;93.54;95136.31;10549678;28;1360;-80
2021/01/13 21:25:24;;;;;;;;;;;1.90;99.90;;;0.87;93.40;95142.97;10552945;28;1666;-81
2021/01/13 21:30:25;;;;;;;;;;;2.00;99.90;;;0.88;93.25;95128.69;10542694;28;1589;-80
2021/01/13 21:35:27;;;;;;;;;;;3.50;99.90;;;0.87;93.32;95127.09;10556602;28;1886;-82
2021/01/13 21:40:29;;;;;;;;;;;1.90;99.90;;;0.91;93.39;95116.88;10545744;28;1605;-80
2021/01/13 21:45:31;;;;;;;;;;;2.00;99.90;;;0.92;93.56;95094.66;10542609;28;2916;-82
2021/01/13 21:50:33;;;;;;;;;;;2.00;99.90;;;1.01;92.91;95095.91;10543055;28;2343;-80
2021/01/13 21:55:34;;;;;;;;;;;2.80;99.90;;;1.02;93.13;95102.84;10543587;28;2256;-81
2021/01/13 22:00:38;;;;;;;;;;;2.10;99.90;;;1.09;92.22;95082.34;10559064;28;2252;-80
2021/01/13 22:05:40;;;;;;;;;;;2.20;99.90;;;1.08;92.06;95086.84;10561276;28;2286;-80
2021/01/13 22:10:42;;;;;;;;;;;2.80;99.90;;;1.13;92.12;95070.25;10549609;28;2205;-80
2021/01/13 22:15:43;;;;;;;;;;;2.20;99.90;;;1.23;91.20;95088.22;10537411;28;2256;-80
2021/01/13 22:20:50;;;;;;;;;;;3.40;99.90;;;1.27;91.29;95089.34;10551741;28;2258;-79
2021/01/13 22:25:55;;;;;;;;;;;2.30;99.90;;;1.28;91.04;95094.44;10532327;28;2342;-80
2021/01/13 22:30:58;;;;;;;;;;;2.30;99.90;;;1.33;90.88;95075.16;10564578;28;2228;-80
2021/01/13 22:36:00;;;;;;;;;;;2.40;99.90;;;1.34;91.06;95082.09;10560318;28;2221;-80
2021/01/13 22:41:04;;;;;;;;;;;2.40;99.90;;;1.38;91.11;95074.47;10569637;28;2275;-81
2021/01/13 22:46:06;;;;;;;;;;;2.40;99.90;;;1.46;90.17;95090.81;10574965;28;2208;-81
2021/01/13 22:51:11;;;;;;;;;;;2.50;99.90;;;1.49;90.42;95071.81;10561622;28;2283;-80
2021/01/13 22:56:13;;;;;;;;;;;2.60;99.90;;;1.44;90.80;95089.44;10543828;28;2250;-79
2021/01/13 23:01:15;;;;;;;;;;;3.70;99.90;;;1.42;90.84;95094.97;10547443;28;2142;-78
2021/01/13 23:06:18;;;;;;;;;;;2.50;99.90;;;1.38;91.19;95088.53;10558899;28;2346;-79
2021/01/13 23:11:20;;;;;;;;;;;2.50;99.90;;;1.34;91.58;95101.44;10572599;28;2205;-79
2021/01/13 23:16:22;;;;;;;;;;;3.80;99.90;;;1.29;92.04;95092.59;10541655;28;2388;-81
2021/01/13 23:21:23;;;;;;;;;;;2.40;99.90;;;1.28;92.15;95086.47;10571837;28;2279;-81
2021/01/13 23:26:25;;;;;;;;;;;2.80;99.90;;;1.24;92.57;95084.53;10565755;28;2284;-80
2021/01/13 23:31:29;;;;;;;;;;;2.30;99.90;;;1.19;92.53;95087.84;10575438;28;2656;-79
2021/01/13 23:36:31;;;;;;;;;;;4.40;99.90;;;1.24;92.52;95080.03;10582379;28;2256;-79
2021/01/13 23:41:33;;;;;;;;;;;3.00;99.90;;;1.24;92.45;95073.94;10552796;28;2517;-79